Time;durP1;ratioP1;P1;durP2;ratioP2;P2;SDS_P1;SDS_P2;PMS_P1;PMS_P2;Temp;Humidity;BMP_temperature;BMP_pressure;BME280_temperature;BME280_humidity;BME280_pressure;Samples;Min_cycle;Max_cycle;Signal;HPM_P1;HPM_P2
2023/05/22 00:02:25;;;;;;;16.17;3.97;;;;;;;;;;4950746;28;20393;-40
2023/05/22 00:04:53;;;;;;;10.38;4.05;;;;;;;;;;4950673;29;20043;-39
2023/05/22 00:07:21;;;;;;;16.30;3.92;;;;;;;;;;4952072;28;20094;-40
2023/05/22 00:09:48;;;;;;;16.77;4.05;;;;;;;;;;4951936;28;20035;-39
2023/05/22 00:12:15;;;;;;;16.42;3.67;;;;;;;;;;4950956;28;20038;-42
2023/05/22 00:14:43;;;;;;;15.45;4.22;;;;;;;;;;4949874;28;20063;-40
2023/05/22 00:17:13;;;;;;;9.35;3.83;;;;;;;;;;4955593;28;20035;-42
2023/05/22 00:19:41;;;;;;;15.45;4.03;;;;;;;;;;4953097;28;20130;-44
2023/05/22 00:22:09;;;;;;;19.33;4.10;;;;;;;;;;4956055;28;20035;-40
2023/05/22 00:24:36;;;;;;;13.63;4.40;;;;;;;;;;4956569;28;20047;-41
2023/05/22 00:27:02;;;;;;;20.25;4.45;;;;;;;;;;4956808;28;20034;-47
2023/05/22 00:29:30;;;;;;;13.40;4.10;;;;;;;;;;4956261;28;20031;-40
2023/05/22 00:31:57;;;;;;;17.27;4.63;;;;;;;;;;4956697;29;20102;-42
2023/05/22 00:34:24;;;;;;;19.52;5.50;;;;;;;;;;4955804;29;20498;-41
2023/05/22 00:36:51;;;;;;;13.32;4.75;;;;;;;;;;4956335;29;20034;-41
2023/05/22 00:39:18;;;;;;;13.95;4.13;;;;;;;;;;4955496;29;20031;-39
2023/05/22 00:41:45;;;;;;;15.23;4.72;;;;;;;;;;4955300;28;20031;-38
2023/05/22 00:44:12;;;;;;;15.55;4.93;;;;;;;;;;4955594;28;20097;-39
2023/05/22 00:46:39;;;;;;;14.25;4.60;;;;;;;;;;4970463;28;20061;-38
2023/05/22 00:49:06;;;;;;;19.83;5.15;;;;;;;;;;4974804;28;20034;-38
2023/05/22 00:51:33;;;;;;;14.27;4.95;;;;;;;;;;4973979;28;20023;-40
2023/05/22 00:54:00;;;;;;;11.68;4.78;;;;;;;;;;4974489;28;20047;-40
2023/05/22 00:56:28;;;;;;;18.00;5.20;;;;;;;;;;4974102;28;20405;-42
2023/05/22 00:58:55;;;;;;;19.67;5.28;;;;;;;;;;4973872;28;20440;-48
2023/05/22 01:01:22;;;;;;;14.20;4.60;;;;;;;;;;4971223;28;20029;-41
2023/05/22 01:03:50;;;;;;;18.98;4.50;;;;;;;;;;4974615;28;20358;-45
2023/05/22 01:06:17;;;;;;;17.58;5.40;;;;;;;;;;4971698;28;20034;-42
2023/05/22 01:08:45;;;;;;;20.40;4.90;;;;;;;;;;4972561;28;20026;-41
2023/05/22 01:11:23;;;;;;;19.88;4.55;;;;;;;;;;4973766;28;20062;-38
2023/05/22 01:14:09;;;;;;;12.45;4.15;;;;;;;;;;4972137;28;20145;-39
2023/05/22 01:17:07;;;;;;;13.82;4.22;;;;;;;;;;4972602;28;20432;-38
2023/05/22 01:19:59;;;;;;;16.52;4.10;;;;;;;;;;4971565;28;20470;-39
2023/05/22 01:22:30;;;;;;;13.18;4.20;;;;;;;;;;4970220;28;20042;-39
2023/05/22 01:25:12;;;;;;;14.85;4.57;;;;;;;;;;4971136;28;20049;-40
2023/05/22 01:27:48;;;;;;;10.15;4.45;;;;;;;;;;4971465;28;20037;-41
2023/05/22 01:30:34;;;;;;;12.95;4.22;;;;;;;;;;4972010;28;20091;-39
2023/05/22 01:33:02;;;;;;;12.07;3.92;;;;;;;;;;4972567;28;20035;-41
2023/05/22 01:35:30;;;;;;;12.68;3.95;;;;;;;;;;4973919;28;20026;-39
2023/05/22 01:37:58;;;;;;;11.82;3.83;;;;;;;;;;4955951;28;20042;-39
2023/05/22 01:40:25;;;;;;;12.68;3.70;;;;;;;;;;4973351;28;20395;-43
2023/05/22 01:42:52;;;;;;;12.45;4.40;;;;;;;;;;4973368;28;20133;-39
2023/05/22 01:45:21;;;;;;;10.90;3.78;;;;;;;;;;4973101;28;20066;-39
2023/05/22 01:47:48;;;;;;;11.85;3.90;;;;;;;;;;4973717;28;20031;-41
2023/05/22 01:50:15;;;;;;;15.57;5.05;;;;;;;;;;4974545;28;20088;-39
2023/05/22 01:52:56;;;;;;;14.10;3.78;;;;;;;;;;4973077;28;20417;-39
2023/05/22 01:55:33;;;;;;;10.48;3.58;;;;;;;;;;4973530;28;20392;-39
2023/05/22 01:58:13;;;;;;;11.70;3.83;;;;;;;;;;4973414;28;20042;-39
2023/05/22 02:00:42;;;;;;;11.90;4.07;;;;;;;;;;4973822;28;20042;-39
2023/05/22 02:03:13;;;;;;;9.43;3.78;;;;;;;;;;4974358;28;20409;-39
2023/05/22 02:05:41;;;;;;;7.80;3.78;;;;;;;;;;4974236;28;20046;-39
2023/05/22 02:08:08;;;;;;;10.30;3.90;;;;;;;;;;4974476;28;20084;-39
2023/05/22 02:10:35;;;;;;;11.05;3.65;;;;;;;;;;4974175;28;20440;-39
2023/05/22 02:13:03;;;;;;;10.05;3.97;;;;;;;;;;4974176;28;20512;-41
2023/05/22 02:15:30;;;;;;;8.52;3.42;;;;;;;;;;4974096;28;20409;-39
2023/05/22 02:18:00;;;;;;;10.82;3.58;;;;;;;;;;4974267;28;20046;-38
2023/05/22 02:20:27;;;;;;;8.27;3.00;;;;;;;;;;4974309;28;20105;-39
2023/05/22 02:22:54;;;;;;;15.68;3.75;;;;;;;;;;4974115;28;20082;-39
2023/05/22 02:25:21;;;;;;;8.23;3.55;;;;;;;;;;4974023;28;20035;-39
2023/05/22 02:27:51;;;;;;;7.18;3.30;;;;;;;;;;4974145;28;20023;-39
2023/05/22 02:30:18;;;;;;;6.43;3.10;;;;;;;;;;4974142;28;20031;-39
2023/05/22 02:32:45;;;;;;;8.95;3.05;;;;;;;;;;4973957;28;20057;-39
2023/05/22 02:35:12;;;;;;;7.90;2.88;;;;;;;;;;4973923;28;20034;-41
2023/05/22 02:37:39;;;;;;;8.27;3.15;;;;;;;;;;4956255;28;20031;-39
2023/05/22 02:40:07;;;;;;;7.55;3.00;;;;;;;;;;4973781;28;20078;-39
2023/05/22 02:42:34;;;;;;;8.70;3.00;;;;;;;;;;4973745;28;20054;-39
2023/05/22 02:45:01;;;;;;;7.10;3.13;;;;;;;;;;4973353;28;20051;-39
2023/05/22 02:47:28;;;;;;;6.18;2.97;;;;;;;;;;4973629;28;20103;-39
2023/05/22 02:49:56;;;;;;;5.75;2.70;;;;;;;;;;4973505;28;20030;-39
2023/05/22 02:52:23;;;;;;;6.97;2.88;;;;;;;;;;4973359;28;20039;-39
2023/05/22 02:54:50;;;;;;;6.25;2.53;;;;;;;;;;4973580;28;20467;-39
2023/05/22 02:57:17;;;;;;;7.18;2.70;;;;;;;;;;4973538;28;20062;-39
2023/05/22 02:59:44;;;;;;;5.78;2.70;;;;;;;;;;4973545;28;20485;-39
2023/05/22 03:02:12;;;;;;;6.85;2.97;;;;;;;;;;4973265;28;20037;-39
2023/05/22 03:04:40;;;;;;;7.13;2.63;;;;;;;;;;4973067;28;20047;-39
2023/05/22 03:07:07;;;;;;;6.45;2.75;;;;;;;;;;4973159;28;20062;-39
2023/05/22 03:09:34;;;;;;;4.95;2.50;;;;;;;;;;4973305;28;20105;-39
2023/05/22 03:12:01;;;;;;;7.30;3.10;;;;;;;;;;4973006;28;20070;-39
2023/05/22 03:14:28;;;;;;;5.75;2.72;;;;;;;;;;4973280;28;20105;-40
2023/05/22 03:16:57;;;;;;;5.80;2.53;;;;;;;;;;4973106;28;20042;-39
2023/05/22 03:19:25;;;;;;;5.22;2.33;;;;;;;;;;4973042;28;20041;-39
2023/05/22 03:21:52;;;;;;;6.30;2.50;;;;;;;;;;4973117;28;20043;-37
2023/05/22 03:24:19;;;;;;;5.20;2.53;;;;;;;;;;4973037;28;20062;-38
2023/05/22 03:26:46;;;;;;;5.45;2.42;;;;;;;;;;4972943;28;20062;-39
2023/05/22 03:29:13;;;;;;;5.53;2.65;;;;;;;;;;4972968;28;20432;-39
2023/05/22 03:31:40;;;;;;;6.22;2.30;;;;;;;;;;4955624;28;20405;-39
2023/05/22 03:34:07;;;;;;;5.65;2.50;;;;;;;;;;4972918;28;20027;-39
2023/05/22 03:36:35;;;;;;;4.65;2.53;;;;;;;;;;4973014;28;20119;-38
2023/05/22 03:39:05;;;;;;;4.78;2.53;;;;;;;;;;4972964;28;20503;-39
2023/05/22 03:41:32;;;;;;;3.38;2.30;;;;;;;;;;4972787;28;20057;-39
2023/05/22 03:43:59;;;;;;;4.28;2.25;;;;;;;;;;4972822;28;20477;-38
2023/05/22 03:46:26;;;;;;;4.55;2.60;;;;;;;;;;4972681;28;20055;-39
2023/05/22 03:48:53;;;;;;;6.50;2.60;;;;;;;;;;4972810;28;20027;-38
2023/05/22 03:51:20;;;;;;;5.53;2.78;;;;;;;;;;4972249;28;20037;-38
2023/05/22 03:53:47;;;;;;;5.07;2.70;;;;;;;;;;4972518;28;20039;-40
2023/05/22 03:56:14;;;;;;;4.18;2.42;;;;;;;;;;4972758;28;20075;-39
2023/05/22 03:58:41;;;;;;;4.60;2.17;;;;;;;;;;4972751;28;20106;-39
2023/05/22 04:01:10;;;;;;;4.50;2.08;;;;;;;;;;4972712;28;20043;-41
2023/05/22 04:03:37;;;;;;;4.13;2.30;;;;;;;;;;4972424;28;20501;-38
2023/05/22 04:06:04;;;;;;;3.88;2.20;;;;;;;;;;4972616;28;20031;-38
2023/05/22 04:08:31;;;;;;;3.55;2.00;;;;;;;;;;4972639;28;20039;-40
2023/05/22 04:10:58;;;;;;;3.95;1.92;;;;;;;;;;4972550;28;20042;-39
2023/05/22 04:13:26;;;;;;;6.15;2.50;;;;;;;;;;4955030;28;20401;-39
2023/05/22 04:15:53;;;;;;;2.95;1.90;;;;;;;;;;4972633;28;20500;-39
2023/05/22 04:18:20;;;;;;;3.47;2.05;;;;;;;;;;4972553;28;20158;-39
2023/05/22 04:20:47;;;;;;;4.75;2.17;;;;;;;;;;4972537;28;20046;-40
2023/05/22 04:23:14;;;;;;;4.35;1.85;;;;;;;;;;4972520;28;20113;-41
2023/05/22 04:25:41;;;;;;;2.50;1.67;;;;;;;;;;4972436;28;20051;-39
2023/05/22 04:28:08;;;;;;;3.92;2.28;;;;;;;;;;4972547;28;20050;-39
2023/05/22 04:30:38;;;;;;;3.63;1.90;;;;;;;;;;4972455;28;20031;-42
2023/05/22 04:33:05;;;;;;;3.50;2.03;;;;;;;;;;4972380;28;20039;-39
2023/05/22 04:35:33;;;;;;;3.35;2.05;;;;;;;;;;4972436;28;20039;-38
2023/05/22 04:38:00;;;;;;;4.35;2.20;;;;;;;;;;4972478;28;20078;-39
2023/05/22 04:40:32;;;;;;;4.50;1.95;;;;;;;;;;4972225;28;20038;-42
2023/05/22 04:43:00;;;;;;;4.97;1.98;;;;;;;;;;4972436;28;20122;-40
2023/05/22 04:45:30;;;;;;;4.78;2.25;;;;;;;;;;4972030;28;20058;-39
2023/05/22 04:47:58;;;;;;;3.47;2.00;;;;;;;;;;4972280;28;20133;-39
2023/05/22 04:50:25;;;;;;;4.68;2.08;;;;;;;;;;4972080;28;20039;-39
2023/05/22 04:52:52;;;;;;;4.25;1.95;;;;;;;;;;4972292;28;20106;-39
2023/05/22 04:55:21;;;;;;;2.55;1.67;;;;;;;;;;4972179;28;20101;-39
2023/05/22 04:57:47;;;;;;;2.97;1.80;;;;;;;;;;4972121;28;20043;-41
2023/05/22 05:00:15;;;;;;;4.78;2.00;;;;;;;;;;4954801;28;20387;-39
2023/05/22 05:02:42;;;;;;;3.22;2.00;;;;;;;;;;4973553;28;20043;-39
2023/05/22 05:05:09;;;;;;;4.55;2.20;;;;;;;;;;4975616;28;20400;-39
2023/05/22 05:07:37;;;;;;;3.15;1.88;;;;;;;;;;4975599;28;20498;-39
2023/05/22 05:10:05;;;;;;;3.30;1.92;;;;;;;;;;4975532;28;20054;-39
2023/05/22 05:12:32;;;;;;;2.45;1.70;;;;;;;;;;4975184;28;20038;-39
2023/05/22 05:14:59;;;;;;;3.92;1.88;;;;;;;;;;4975485;28;20026;-39
2023/05/22 05:17:26;;;;;;;4.20;1.77;;;;;;;;;;4975434;28;20111;-39
2023/05/22 05:19:53;;;;;;;2.40;1.52;;;;;;;;;;4975403;28;20081;-39
2023/05/22 05:22:20;;;;;;;2.40;1.77;;;;;;;;;;4975237;28;20042;-39
2023/05/22 05:24:47;;;;;;;3.90;1.77;;;;;;;;;;4975178;28;20039;-39
2023/05/22 05:27:14;;;;;;;2.90;1.77;;;;;;;;;;4975195;28;20405;-39
2023/05/22 05:29:41;;;;;;;3.17;1.73;;;;;;;;;;4975226;28;20560;-39
2023/05/22 05:32:10;;;;;;;2.78;1.58;;;;;;;;;;4974996;28;20035;-38
2023/05/22 05:34:37;;;;;;;2.97;1.75;;;;;;;;;;4974985;28;20093;-39
2023/05/22 05:37:04;;;;;;;4.05;1.60;;;;;;;;;;4975030;28;20023;-39
2023/05/22 05:39:31;;;;;;;2.55;1.60;;;;;;;;;;4975064;28;20474;-39
2023/05/22 05:41:59;;;;;;;2.50;1.70;;;;;;;;;;4974927;28;20125;-39
2023/05/22 05:44:26;;;;;;;2.60;1.42;;;;;;;;;;4974756;28;20022;-39
2023/05/22 05:46:53;;;;;;;2.92;1.50;;;;;;;;;;4974553;28;20123;-39
2023/05/22 05:49:20;;;;;;;2.60;1.55;;;;;;;;;;4974745;28;20042;-39
2023/05/22 05:51:47;;;;;;;1.88;1.45;;;;;;;;;;4974728;28;20033;-38
2023/05/22 05:54:14;;;;;;;2.15;1.60;;;;;;;;;;4974762;28;20030;-39
2023/05/22 05:56:41;;;;;;;2.35;1.45;;;;;;;;;;4974683;28;20093;-40
2023/05/22 05:59:08;;;;;;;1.83;1.35;;;;;;;;;;4974731;28;20089;-39
2023/05/22 06:01:35;;;;;;;2.40;1.65;;;;;;;;;;4978832;28;20042;-44
2023/05/22 06:04:02;;;;;;;3.13;1.73;;;;;;;;;;4993984;28;20037;-39
2023/05/22 06:06:35;;;;;;;2.15;1.55;;;;;;;;;;4994011;28;20030;-39
2023/05/22 06:09:05;;;;;;;3.28;1.50;;;;;;;;;;4993094;28;20152;-39
2023/05/22 06:11:32;;;;;;;2.13;1.40;;;;;;;;;;4990461;28;20192;-38
2023/05/22 06:13:59;;;;;;;3.00;1.48;;;;;;;;;;4993289;28;20361;-39
2023/05/22 06:16:27;;;;;;;2.22;1.50;;;;;;;;;;4993796;28;20033;-41
2023/05/22 06:18:55;;;;;;;1.55;1.27;;;;;;;;;;4993583;28;20069;-40
2023/05/22 06:21:23;;;;;;;2.78;1.48;;;;;;;;;;4993594;28;20085;-38
2023/05/22 06:23:50;;;;;;;2.50;1.60;;;;;;;;;;4993397;28;20516;-38
2023/05/22 06:26:17;;;;;;;1.50;1.25;;;;;;;;;;4993366;28;20064;-39
2023/05/22 06:28:45;;;;;;;2.95;1.40;;;;;;;;;;4993530;28;20029;-40
2023/05/22 06:31:11;;;;;;;1.95;1.52;;;;;;;;;;4993546;28;20034;-38
2023/05/22 06:33:39;;;;;;;2.65;1.70;;;;;;;;;;4993379;28;20029;-38
2023/05/22 06:36:07;;;;;;;2.33;1.52;;;;;;;;;;4993409;28;20038;-38
2023/05/22 06:38:36;;;;;;;1.92;1.50;;;;;;;;;;4993233;28;20034;-38
2023/05/22 06:41:04;;;;;;;2.05;1.40;;;;;;;;;;4993178;28;20034;-39
2023/05/22 06:43:31;;;;;;;2.55;1.70;;;;;;;;;;4992963;28;20034;-39
2023/05/22 06:45:58;;;;;;;1.98;1.45;;;;;;;;;;4992988;28;20058;-39
2023/05/22 06:48:25;;;;;;;1.90;1.48;;;;;;;;;;4993187;28;20030;-39
2023/05/22 06:50:52;;;;;;;2.03;1.50;;;;;;;;;;4993077;28;20048;-40
2023/05/22 06:53:19;;;;;;;2.45;1.52;;;;;;;;;;4993051;28;20543;-38
2023/05/22 06:55:46;;;;;;;2.50;1.48;;;;;;;;;;4975544;28;20440;-38
2023/05/22 06:58:13;;;;;;;2.13;1.40;;;;;;;;;;4992893;28;20092;-39
2023/05/22 07:00:40;;;;;;;2.90;1.55;;;;;;;;;;4992938;28;20038;-40
2023/05/22 07:03:07;;;;;;;1.92;1.35;;;;;;;;;;4992874;28;20105;-38
2023/05/22 07:05:34;;;;;;;2.05;1.50;;;;;;;;;;4992763;28;20041;-40
2023/05/22 07:08:01;;;;;;;2.17;1.60;;;;;;;;;;4992740;28;20061;-39
2023/05/22 07:10:28;;;;;;;2.00;1.50;;;;;;;;;;4992815;28;20054;-38
2023/05/22 07:12:54;;;;;;;2.38;1.70;;;;;;;;;;4992601;28;20026;-41
2023/05/22 07:15:21;;;;;;;1.65;1.45;;;;;;;;;;4992749;28;20034;-39
2023/05/22 07:17:48;;;;;;;1.55;1.30;;;;;;;;;;4992678;28;20030;-38
2023/05/22 07:20:16;;;;;;;2.72;1.60;;;;;;;;;;4992628;28;20034;-38
2023/05/22 07:22:43;;;;;;;3.10;1.52;;;;;;;;;;4992369;28;20046;-40
2023/05/22 07:25:10;;;;;;;1.48;1.33;;;;;;;;;;4991667;28;20038;-39
2023/05/22 07:27:37;;;;;;;2.70;1.50;;;;;;;;;;4992394;28;20034;-39
2023/05/22 07:30:05;;;;;;;2.13;1.40;;;;;;;;;;4992452;28;20160;-39
2023/05/22 07:32:31;;;;;;;1.50;1.40;;;;;;;;;;4992450;28;20022;-39
2023/05/22 07:34:58;;;;;;;1.80;1.30;;;;;;;;;;4992411;28;20038;-39
2023/05/22 07:37:25;;;;;;;2.38;1.50;;;;;;;;;;4992365;28;20026;-39
2023/05/22 07:39:52;;;;;;;1.67;1.52;;;;;;;;;;4992674;28;20388;-39
2023/05/22 07:42:20;;;;;;;2.20;1.38;;;;;;;;;;4992313;28;20030;-39
2023/05/22 07:44:47;;;;;;;2.13;1.55;;;;;;;;;;4991831;28;20097;-39
2023/05/22 07:47:14;;;;;;;1.98;1.30;;;;;;;;;;4992287;28;20034;-39
2023/05/22 07:49:41;;;;;;;1.88;1.50;;;;;;;;;;4992282;28;20022;-39
2023/05/22 07:52:08;;;;;;;2.72;1.60;;;;;;;;;;4992113;28;20129;-39
2023/05/22 07:54:35;;;;;;;2.17;1.58;;;;;;;;;;4992191;28;20038;-39
2023/05/22 07:57:02;;;;;;;2.85;1.50;;;;;;;;;;4992083;28;20038;-39
2023/05/22 07:59:29;;;;;;;2.28;1.48;;;;;;;;;;4992443;28;20084;-39
2023/05/22 08:01:56;;;;;;;2.08;1.30;;;;;;;;;;4992029;28;20022;-40
2023/05/22 08:04:23;;;;;;;1.58;1.25;;;;;;;;;;4992136;28;20035;-39
2023/05/22 08:06:50;;;;;;;2.78;1.15;;;;;;;;;;4992179;28;20611;-39
2023/05/22 08:09:17;;;;;;;1.75;1.48;;;;;;;;;;4992178;28;20032;-38
2023/05/22 08:11:44;;;;;;;1.70;1.17;;;;;;;;;;4991790;28;20030;-39
2023/05/22 08:14:11;;;;;;;1.58;1.20;;;;;;;;;;4991932;28;20110;-39
2023/05/22 08:16:38;;;;;;;1.75;1.50;;;;;;;;;;4992090;28;20089;-39
2023/05/22 08:19:08;;;;;;;1.30;1.20;;;;;;;;;;4992063;28;20040;-39
2023/05/22 08:21:36;;;;;;;3.25;1.40;;;;;;;;;;5002639;28;20099;-39
2023/05/22 08:24:03;;;;;;;3.25;1.38;;;;;;;;;;5011393;28;20038;-39
2023/05/22 08:26:32;;;;;;;1.83;1.17;;;;;;;;;;4993724;28;20053;-39
2023/05/22 08:28:59;;;;;;;1.60;1.27;;;;;;;;;;5011615;28;20377;-39
2023/05/22 08:31:28;;;;;;;1.17;1.00;;;;;;;;;;5011533;28;20033;-39
2023/05/22 08:34:01;;;;;;;2.00;1.27;;;;;;;;;;5011441;28;20109;-39
2023/05/22 08:36:28;;;;;;;1.52;1.30;;;;;;;;;;5012728;28;20042;-39
2023/05/22 08:38:56;;;;;;;1.27;1.17;;;;;;;;;;5015115;28;20117;-40
2023/05/22 08:41:22;;;;;;;2.78;1.30;;;;;;;;;;5015177;28;20026;-39
2023/05/22 08:43:49;;;;;;;1.73;1.05;;;;;;;;;;5015170;28;20516;-39
2023/05/22 08:46:18;;;;;;;1.52;1.25;;;;;;;;;;5014895;28;20042;-39
2023/05/22 08:48:46;;;;;;;1.85;1.42;;;;;;;;;;5014925;28;20038;-39
2023/05/22 08:51:13;;;;;;;1.10;1.00;;;;;;;;;;5014860;28;20149;-39
2023/05/22 08:53:42;;;;;;;2.15;1.20;;;;;;;;;;5014899;28;20025;-39
2023/05/22 08:56:10;;;;;;;2.78;1.20;;;;;;;;;;5014939;28;20029;-39
2023/05/22 08:58:37;;;;;;;1.45;1.10;;;;;;;;;;5014735;28;20033;-39
2023/05/22 09:01:06;;;;;;;1.35;1.08;;;;;;;;;;5014788;28;20104;-40
2023/05/22 09:03:33;;;;;;;3.28;1.35;;;;;;;;;;5014563;28;20036;-39
2023/05/22 09:06:01;;;;;;;1.88;1.23;;;;;;;;;;5004941;28;20058;-39
2023/05/22 09:08:28;;;;;;;1.30;1.10;;;;;;;;;;4995204;28;20109;-39
2023/05/22 09:10:55;;;;;;;1.20;1.10;;;;;;;;;;4995087;28;20031;-39
2023/05/22 09:13:26;;;;;;;1.92;1.35;;;;;;;;;;4994901;28;20022;-40
2023/05/22 09:15:53;;;;;;;2.63;1.50;;;;;;;;;;4995062;28;20510;-39
2023/05/22 09:18:20;;;;;;;1.80;1.30;;;;;;;;;;4995021;28;20496;-39
2023/05/22 09:20:47;;;;;;;1.20;1.10;;;;;;;;;;4994803;28;20500;-39
2023/05/22 09:23:20;;;;;;;1.38;1.00;;;;;;;;;;4994747;28;20117;-41
2023/05/22 09:25:47;;;;;;;1.60;1.17;;;;;;;;;;4994538;28;20117;-39
2023/05/22 09:28:14;;;;;;;1.20;1.10;;;;;;;;;;4994630;28;20054;-38
2023/05/22 09:30:41;;;;;;;1.25;1.13;;;;;;;;;;4993836;28;20038;-38
2023/05/22 09:33:08;;;;;;;2.83;1.20;;;;;;;;;;4994064;28;20072;-38
2023/05/22 09:35:38;;;;;;;1.75;1.10;;;;;;;;;;4989586;28;20018;-39
2023/05/22 09:38:05;;;;;;;1.85;1.30;;;;;;;;;;4982538;28;20765;-39
2023/05/22 09:40:36;;;;;;;2.42;1.40;;;;;;;;;;4994034;28;20081;-38
2023/05/22 09:43:10;;;;;;;2.45;1.58;;;;;;;;;;4992404;28;20022;-39
2023/05/22 09:45:37;;;;;;;4.15;1.40;;;;;;;;;;4992830;28;20050;-38
2023/05/22 09:48:08;;;;;;;3.17;1.38;;;;;;;;;;4992743;28;20498;-38
2023/05/22 09:50:36;;;;;;;1.95;1.23;;;;;;;;;;4994152;28;20035;-38
2023/05/22 09:53:04;;;;;;;1.70;1.30;;;;;;;;;;4994124;28;20452;-38
2023/05/22 09:55:32;;;;;;;3.58;1.23;;;;;;;;;;4994386;28;20381;-38
2023/05/22 09:58:03;;;;;;;3.40;1.40;;;;;;;;;;4994124;28;20042;-39
2023/05/22 10:00:30;;;;;;;2.28;1.23;;;;;;;;;;4994071;28;20042;-39
2023/05/22 10:03:10;;;;;;;3.38;1.60;;;;;;;;;;4994187;28;20050;-40
2023/05/22 10:05:40;;;;;;;3.55;1.30;;;;;;;;;;4993730;28;20732;-38
2023/05/22 10:08:12;;;;;;;6.18;1.42;;;;;;;;;;4994080;28;20026;-39
2023/05/22 10:10:40;;;;;;;3.08;1.40;;;;;;;;;;4993997;28;20028;-38
2023/05/22 10:13:08;;;;;;;3.75;1.40;;;;;;;;;;4993887;28;20022;-38
2023/05/22 10:15:35;;;;;;;2.15;1.65;;;;;;;;;;4993904;28;20062;-38
2023/05/22 10:18:02;;;;;;;3.55;1.75;;;;;;;;;;4993841;28;20033;-39
2023/05/22 10:20:30;;;;;;;5.15;1.40;;;;;;;;;;4989643;28;20045;-38
2023/05/22 10:22:57;;;;;;;1.75;1.33;;;;;;;;;;4991362;28;20076;-39
2023/05/22 10:25:24;;;;;;;1.67;1.23;;;;;;;;;;4992659;28;20050;-42
2023/05/22 10:27:52;;;;;;;13.65;2.20;;;;;;;;;;4992759;28;20038;-39
2023/05/22 10:30:25;;;;;;;11.25;2.10;;;;;;;;;;4992374;28;20026;-39
2023/05/22 10:32:55;;;;;;;14.45;2.40;;;;;;;;;;4992467;28;20026;-44
2023/05/22 10:35:29;;;;;;;10.15;2.35;;;;;;;;;;4992515;28;20064;-39
2023/05/22 10:38:07;;;;;;;6.43;2.13;;;;;;;;;;4992059;28;20080;-39
2023/05/22 10:40:35;;;;;;;10.98;2.15;;;;;;;;;;4993265;28;20038;-39
2023/05/22 10:43:03;;;;;;;14.30;2.65;;;;;;;;;;4990551;28;20030;-53
2023/05/22 10:45:31;;;;;;;18.88;2.55;;;;;;;;;;4984447;28;20132;-42
2023/05/22 10:48:22;;;;;;;7.97;2.20;;;;;;;;;;4991443;28;20034;-38
2023/05/22 10:50:52;;;;;;;14.23;2.42;;;;;;;;;;4986037;28;20358;-39
2023/05/22 10:53:26;;;;;;;11.50;2.00;;;;;;;;;;4991567;28;20030;-39
2023/05/22 10:55:54;;;;;;;10.18;2.00;;;;;;;;;;4991332;28;20030;-39
2023/05/22 10:58:31;;;;;;;9.95;1.88;;;;;;;;;;4992210;28;20033;-40
2023/05/22 11:01:12;;;;;;;6.57;2.00;;;;;;;;;;4984476;28;20485;-41
2023/05/22 11:03:54;;;;;;;14.23;2.33;;;;;;;;;;4990110;28;20085;-41
2023/05/22 11:06:20;;;;;;;;;;;;;;;;;;4989544;28;20041;-42
2023/05/22 11:08:49;;;;;;;8.30;1.98;;;;;;;;;;4992206;28;19916;-40
2023/05/22 11:11:15;;;;;;;7.53;2.13;;;;;;;;;;4988021;28;20463;-40
2023/05/22 11:13:43;;;;;;;7.15;1.95;;;;;;;;;;4987758;28;20476;-40
2023/05/22 11:16:10;;;;;;;3.17;1.50;;;;;;;;;;4991185;28;20406;-41
2023/05/22 11:18:37;;;;;;;4.88;1.75;;;;;;;;;;4992091;28;20105;-41
2023/05/22 11:21:04;;;;;;;5.25;1.92;;;;;;;;;;4991730;28;20026;-48
2023/05/22 11:23:34;;;;;;;3.88;1.70;;;;;;;;;;4987547;28;20038;-46
2023/05/22 11:26:18;;;;;;;6.45;1.77;;;;;;;;;;4989470;28;20052;-47
2023/05/22 11:28:55;;;;;;;4.88;1.70;;;;;;;;;;4991258;28;20092;-46
2023/05/22 11:31:22;;;;;;;5.40;1.95;;;;;;;;;;4991384;28;20037;-47
2023/05/22 11:33:49;;;;;;;5.38;1.65;;;;;;;;;;4987829;28;20034;-48
2023/05/22 11:36:17;;;;;;;6.40;1.75;;;;;;;;;;4991803;28;20045;-47
2023/05/22 11:38:44;;;;;;;3.47;1.48;;;;;;;;;;4991461;28;20045;-48
2023/05/22 11:41:11;;;;;;;6.28;2.00;;;;;;;;;;4991381;28;20030;-36
2023/05/22 11:43:39;;;;;;;5.50;1.70;;;;;;;;;;4990769;28;20018;-36
2023/05/22 11:46:10;;;;;;;6.32;1.63;;;;;;;;;;4973372;28;20085;-39
2023/05/22 11:48:40;;;;;;;4.30;1.63;;;;;;;;;;4990585;28;20023;-38
2023/05/22 11:51:09;;;;;;;3.75;1.63;;;;;;;;;;4987579;28;20034;-38
2023/05/22 11:53:36;;;;;;;8.98;2.13;;;;;;;;;;4989867;28;20072;-38
2023/05/22 11:56:04;;;;;;;10.75;2.33;;;;;;;;;;4988684;28;20022;-38
2023/05/22 11:58:31;;;;;;;7.43;2.00;;;;;;;;;;4990463;28;20108;-38
2023/05/22 12:00:58;;;;;;;8.40;2.15;;;;;;;;;;4989699;28;20034;-36
2023/05/22 12:03:25;;;;;;;11.95;2.05;;;;;;;;;;4990169;28;20041;-38
2023/05/22 12:05:52;;;;;;;4.78;1.67;;;;;;;;;;4989032;28;20034;-39
2023/05/22 12:08:19;;;;;;;7.75;2.50;;;;;;;;;;4990474;28;20037;-37
2023/05/22 12:10:47;;;;;;;4.38;1.70;;;;;;;;;;4990587;28;20084;-36
2023/05/22 12:13:14;;;;;;;6.30;2.00;;;;;;;;;;4993462;28;20033;-36
2023/05/22 12:15:41;;;;;;;8.80;2.20;;;;;;;;;;4992011;28;20058;-37
2023/05/22 12:18:08;;;;;;;6.25;2.20;;;;;;;;;;4993091;28;20030;-36
2023/05/22 12:20:35;;;;;;;15.38;2.25;;;;;;;;;;4975978;28;20037;-37
2023/05/22 12:23:02;;;;;;;16.17;2.40;;;;;;;;;;4993498;28;20108;-37
2023/05/22 12:25:38;;;;;;;17.60;2.65;;;;;;;;;;4994209;28;20038;-36
2023/05/22 12:28:06;;;;;;;13.70;2.33;;;;;;;;;;4992652;28;20436;-37
2023/05/22 12:30:40;;;;;;;13.15;2.35;;;;;;;;;;4992762;28;20472;-37
2023/05/22 12:33:14;;;;;;;12.10;2.33;;;;;;;;;;4993060;28;20113;-38
2023/05/22 12:35:41;;;;;;;10.40;2.30;;;;;;;;;;4995056;28;20022;-38
2023/05/22 12:38:08;;;;;;;9.48;2.03;;;;;;;;;;4995197;28;20030;-37
2023/05/22 12:40:35;;;;;;;7.80;2.25;;;;;;;;;;4995526;28;20384;-37
2023/05/22 12:43:02;;;;;;;9.05;1.80;;;;;;;;;;4994674;28;20045;-38
2023/05/22 12:45:29;;;;;;;8.80;2.13;;;;;;;;;;4994844;28;20049;-37
2023/05/22 12:47:56;;;;;;;11.27;2.60;;;;;;;;;;4995218;28;20421;-38
2023/05/22 12:50:23;;;;;;;6.75;2.35;;;;;;;;;;4995282;28;20038;-37
2023/05/22 12:52:50;;;;;;;7.78;2.00;;;;;;;;;;4995205;28;20063;-37
2023/05/22 12:55:17;;;;;;;8.18;2.05;;;;;;;;;;4995405;28;20053;-37
2023/05/22 12:57:44;;;;;;;6.35;1.95;;;;;;;;;;4995296;28;20089;-37
2023/05/22 13:00:12;;;;;;;6.15;2.20;;;;;;;;;;4995118;28;20400;-37
2023/05/22 13:02:39;;;;;;;4.57;1.63;;;;;;;;;;4995332;28;20030;-37
2023/05/22 13:05:06;;;;;;;5.53;1.73;;;;;;;;;;4995066;28;20041;-37
2023/05/22 13:07:33;;;;;;;12.60;1.92;;;;;;;;;;4995190;28;20026;-37
2023/05/22 13:10:00;;;;;;;9.75;2.28;;;;;;;;;;4995007;28;20042;-38
2023/05/22 13:12:27;;;;;;;6.40;1.70;;;;;;;;;;4994928;28;20705;-38
2023/05/22 13:14:54;;;;;;;7.43;2.03;;;;;;;;;;4994977;28;20042;-37
2023/05/22 13:17:21;;;;;;;7.47;2.00;;;;;;;;;;4995003;28;20558;-37
2023/05/22 13:19:48;;;;;;;6.25;1.88;;;;;;;;;;4994991;28;20023;-37
2023/05/22 13:22:15;;;;;;;5.53;1.98;;;;;;;;;;4994096;28;20053;-37
2023/05/22 13:24:42;;;;;;;5.28;2.10;;;;;;;;;;4994315;28;20033;-38
2023/05/22 13:27:09;;;;;;;8.70;1.98;;;;;;;;;;4994849;28;20034;-37
2023/05/22 13:29:36;;;;;;;4.43;1.70;;;;;;;;;;4994649;28;20105;-37
2023/05/22 13:32:03;;;;;;;5.93;1.75;;;;;;;;;;4994540;28;20034;-37
2023/05/22 13:34:30;;;;;;;7.10;1.70;;;;;;;;;;4994702;28;20534;-38
2023/05/22 13:36:57;;;;;;;6.18;1.75;;;;;;;;;;4994669;28;20458;-37
2023/05/22 13:39:24;;;;;;;3.42;1.48;;;;;;;;;;4994537;28;20045;-37
2023/05/22 13:41:52;;;;;;;5.30;1.85;;;;;;;;;;4994350;28;20453;-37
2023/05/22 13:44:20;;;;;;;4.35;1.60;;;;;;;;;;4994282;28;20030;-37
2023/05/22 13:46:46;;;;;;;2.78;1.58;;;;;;;;;;4994178;28;20054;-37
2023/05/22 13:49:13;;;;;;;3.90;1.77;;;;;;;;;;4994437;28;20050;-37
2023/05/22 13:51:40;;;;;;;6.78;1.52;;;;;;;;;;4994156;28;20408;-37
2023/05/22 13:54:07;;;;;;;6.03;1.83;;;;;;;;;;4994143;28;20042;-37
2023/05/22 13:56:34;;;;;;;3.45;1.60;;;;;;;;;;4994267;28;20073;-37
2023/05/22 13:59:03;;;;;;;6.88;1.75;;;;;;;;;;4994188;28;20027;-37
2023/05/22 14:01:30;;;;;;;4.82;1.45;;;;;;;;;;4993995;28;20039;-37
2023/05/22 14:03:57;;;;;;;2.45;1.33;;;;;;;;;;4994171;28;20544;-37
2023/05/22 14:06:24;;;;;;;5.32;1.70;;;;;;;;;;4993841;28;20042;-37
2023/05/22 14:08:51;;;;;;;3.92;1.50;;;;;;;;;;4994079;28;20026;-37
2023/05/22 14:11:18;;;;;;;4.82;1.60;;;;;;;;;;4993916;28;20500;-38
2023/05/22 14:13:45;;;;;;;2.67;1.30;;;;;;;;;;4994107;28;20425;-38
2023/05/22 14:16:12;;;;;;;5.90;1.50;;;;;;;;;;4993991;28;20670;-39
2023/05/22 14:18:39;;;;;;;4.40;1.63;;;;;;;;;;4993857;28;20033;-37
2023/05/22 14:21:06;;;;;;;2.38;1.30;;;;;;;;;;4993884;28;20038;-37
2023/05/22 14:23:33;;;;;;;4.25;1.50;;;;;;;;;;4993756;28;20033;-37
2023/05/22 14:26:00;;;;;;;2.42;1.40;;;;;;;;;;4993677;28;20121;-37
2023/05/22 14:28:27;;;;;;;3.55;1.60;;;;;;;;;;4993753;28;20023;-37
2023/05/22 14:30:55;;;;;;;4.13;1.58;;;;;;;;;;4993500;28;20022;-37
2023/05/22 14:33:22;;;;;;;4.78;1.60;;;;;;;;;;4993545;28;20069;-38
2023/05/22 14:35:50;;;;;;;3.17;1.48;;;;;;;;;;4993317;28;20508;-37
2023/05/22 14:38:17;;;;;;;3.65;1.70;;;;;;;;;;4993382;28;20038;-37
2023/05/22 14:40:44;;;;;;;3.83;1.60;;;;;;;;;;4993309;28;20034;-38
2023/05/22 14:43:11;;;;;;;3.50;1.67;;;;;;;;;;4993383;28;20027;-38
2023/05/22 14:45:38;;;;;;;3.17;1.40;;;;;;;;;;4993090;28;20073;-38
2023/05/22 14:48:05;;;;;;;3.53;1.63;;;;;;;;;;4992162;28;20053;-38